Time;durP1;ratioP1;P1;durP2;ratioP2;P2;SDS_P1;SDS_P2;PMS_P1;PMS_P2;Temp;Humidity;BMP_temperature;BMP_pressure;BME280_temperature;BME280_humidity;BME280_pressure;Samples;Min_cycle;Max_cycle;Signal;HPM_P1;HPM_P2
2022/02/06 00:00:59;;;;;;;1.55;0.95;;;;;;;3.03;72.82;101398.23;1789132;80;21066;-63
2022/02/06 00:03:27;;;;;;;1.98;1.32;;;;;;;3.06;72.70;101399.95;1791088;78;21023;-62
2022/02/06 00:05:56;;;;;;;3.30;1.20;;;;;;;3.09;72.78;101398.23;1789190;80;21585;-63
2022/02/06 00:08:26;;;;;;;1.75;0.85;;;;;;;3.09;72.86;101395.63;1789163;80;21542;-62
2022/02/06 00:10:54;;;;;;;1.00;0.88;;;;;;;3.09;73.17;101389.13;1789139;80;21554;-62
2022/02/06 00:13:23;;;;;;;1.12;0.90;;;;;;;3.11;73.25;101396.08;1791075;78;21565;-64
2022/02/06 00:15:52;;;;;;;1.32;0.90;;;;;;;3.11;72.96;101389.58;1789102;80;21135;-62
2022/02/06 00:18:20;;;;;;;1.67;0.82;;;;;;;3.08;73.04;101382.61;1789139;80;21473;-61
2022/02/06 00:20:53;;;;;;;1.45;1.00;;;;;;;3.07;72.97;101375.25;1789038;80;21494;-63
2022/02/06 00:23:22;;;;;;;2.02;1.40;;;;;;;3.05;72.72;101373.08;1790811;78;21193;-61
2022/02/06 00:28:53;;;;;;;1.90;1.12;;;;;;;3.02;72.91;101369.16;1789214;80;21119;-64
2022/02/06 00:31:22;;;;;;;2.33;1.30;;;;;;;3.00;72.78;101373.49;1787479;80;21079;-63
2022/02/06 00:39:19;;;;;;;1.20;0.95;;;;;;;2.96;72.79;101367.86;1789113;80;21185;-63
2022/02/06 00:41:48;;;;;;;3.35;0.90;;;;;;;2.99;72.92;101372.19;1789279;80;21578;-64
2022/02/06 00:44:17;;;;;;;1.42;0.90;;;;;;;2.97;72.92;101373.92;1791262;78;21336;-63
2022/02/06 00:46:46;;;;;;;2.33;1.00;;;;;;;2.97;72.78;101375.22;1789268;80;21034;-64
2022/02/06 00:49:21;;;;;;;1.82;0.82;;;;;;;2.98;72.77;101380.88;1792454;78;21091;-63
2022/02/06 00:52:06;;;;;;;1.20;0.78;;;;;;;2.98;72.82;101372.63;1817873;79;21137;-63
2022/02/06 00:54:25;;;;;;;2.75;0.88;;;;;;;3.02;72.74;101369.60;1817902;78;21074;-63
2022/02/06 00:56:53;;;;;;;0.70;0.65;;;;;;;3.00;72.86;101361.78;1817936;79;21107;-63
2022/02/06 00:59:22;;;;;;;1.30;0.70;;;;;;;3.01;73.03;101353.13;1817627;79;21560;-66
2022/02/06 01:01:51;;;;;;;0.75;0.60;;;;;;;2.98;72.84;101355.72;1787689;80;21481;-64
2022/02/06 01:04:20;;;;;;;1.05;0.70;;;;;;;2.96;73.12;101350.95;1788959;80;21539;-64
2022/02/06 01:06:49;;;;;;;1.62;0.80;;;;;;;2.95;73.09;101350.94;1789222;80;21486;-62
2022/02/06 01:09:17;;;;;;;2.85;0.80;;;;;;;2.95;73.17;101363.94;1789149;80;21634;-63
2022/02/06 01:11:48;;;;;;;2.05;0.65;;;;;;;2.93;73.34;101367.84;1790205;78;21164;-63
2022/02/06 01:14:29;;;;;;;1.25;0.75;;;;;;;2.92;73.76;101368.72;1789034;80;21115;-65
2022/02/06 01:19:27;;;;;;;0.60;0.50;;;;;;;2.83;75.68;101363.49;1788927;80;21099;-65
2022/02/06 01:22:02;;;;;;;0.53;0.53;;;;;;;2.80;77.00;101353.07;1791426;78;21053;-65
2022/02/06 01:27:24;;;;;;;1.77;0.50;;;;;;;2.76;77.48;101340.48;1789361;80;21110;-63
2022/02/06 01:29:41;;;;;;;1.95;0.70;;;;;;;2.72;77.38;101336.59;1781734;80;21066;-63
2022/02/06 01:32:07;;;;;;;0.90;0.72;;;;;;;2.70;77.42;101331.38;1789942;78;21095;-64
2022/02/06 01:35:12;;;;;;;1.05;0.80;;;;;;;2.68;77.38;101325.31;1788659;80;21087;-60
2022/02/06 01:37:24;;;;;;;2.22;0.60;;;;;;;2.64;77.27;101317.93;1779078;80;21075;-62
2022/02/06 01:39:59;;;;;;;0.65;0.60;;;;;;;2.63;77.12;101322.68;1787953;80;21156;-64
2022/02/06 01:43:06;;;;;;;0.95;0.70;;;;;;;2.62;77.08;101314.46;1789953;78;21157;-61
2022/02/06 01:45:10;;;;;;;1.25;0.80;;;;;;;2.61;77.09;101307.95;1774866;80;21086;-64
2022/02/06 02:01:22;;;;;;;1.72;0.80;;;;;;;2.74;76.53;101302.35;1816884;78;21132;-63
2022/02/06 02:03:55;;;;;;;2.70;1.00;;;;;;;2.72;76.51;101296.28;1825927;78;21143;-62
2022/02/06 02:23:31;;;;;;;2.15;1.20;;;;;;;2.68;76.60;101283.27;1823603;78;21518;-63
2022/02/06 02:27:53;;;;;;;4.30;1.30;;;;;;;2.68;76.76;101285.86;1825924;78;21165;-63
2022/02/06 02:42:47;;;;;;;2.12;1.37;;;;;;;2.63;76.85;101278.48;1823467;78;21066;-63
2022/02/06 02:46:41;;;;;;;3.50;1.82;;;;;;;2.49;77.06;101243.78;1857738;77;21500;-64
2022/02/06 02:49:13;;;;;;;9.90;5.40;;;;;;;2.51;77.15;101247.27;1857380;77;21123;-65
2022/02/06 02:51:42;;;;;;;9.08;4.55;;;;;;;2.55;77.15;101249.01;1859109;74;21045;-65
2022/02/06 02:54:12;;;;;;;11.93;5.05;;;;;;;2.62;77.16;101249.88;1904881;74;21015;-65
2022/02/06 02:56:51;;;;;;;4.33;2.17;;;;;;;2.62;77.19;101244.26;1904667;75;21094;-64
2022/02/06 02:59:20;;;;;;;7.35;1.95;;;;;;;2.62;77.43;101249.46;1904263;75;21020;-62
2022/02/06 03:01:59;;;;;;;3.00;1.50;;;;;;;2.63;77.64;101240.78;1904909;75;21016;-62
2022/02/06 03:04:27;;;;;;;3.37;1.52;;;;;;;2.62;77.78;101239.06;1889118;74;21031;-63
2022/02/06 03:06:56;;;;;;;6.78;1.40;;;;;;;2.63;77.92;101240.78;1885708;76;21419;-63
2022/02/06 03:09:25;;;;;;;3.37;1.70;;;;;;;2.66;77.92;101238.19;1889825;74;21011;-61
2022/02/06 03:11:53;;;;;;;4.92;2.00;;;;;;;2.67;77.96;101239.94;1929257;74;21442;-60
2022/02/06 03:14:38;;;;;;;3.27;1.30;;;;;;;2.68;77.94;101245.56;1929570;74;21042;-61
2022/02/06 03:17:02;;;;;;;3.55;2.08;;;;;;;2.69;78.02;101236.91;1928256;74;21034;-60
2022/02/06 03:19:22;;;;;;;4.78;1.80;;;;;;;2.70;77.96;101235.17;1928668;74;21524;-60
2022/02/06 03:21:52;;;;;;;4.87;1.60;;;;;;;2.74;78.06;101242.55;1926021;74;21119;-63
2022/02/06 03:24:23;;;;;;;3.98;1.27;;;;;;;2.76;78.05;101229.11;1929330;74;21042;-62
2022/02/06 03:26:54;;;;;;;4.55;1.70;;;;;;;2.79;78.04;101223.92;1929193;74;21066;-63
2022/02/06 03:29:25;;;;;;;3.33;1.90;;;;;;;2.85;78.04;101230.41;1929181;73;21100;-62
2022/02/06 03:31:55;;;;;;;7.08;1.52;;;;;;;2.90;78.08;101232.14;1925412;74;20998;-62
2022/02/06 03:34:24;;;;;;;3.75;1.50;;;;;;;2.97;77.96;101221.73;1929149;74;21014;-60
2022/02/06 03:36:52;;;;;;;4.62;1.37;;;;;;;3.01;77.91;101224.34;1929413;74;21046;-65
2022/02/06 03:39:23;;;;;;;7.22;1.62;;;;;;;3.06;77.80;101221.32;1929217;74;21108;-66
2022/02/06 03:42:07;;;;;;;5.87;1.32;;;;;;;3.11;77.69;101219.14;1910752;74;21075;-63
2022/02/06 03:44:35;;;;;;;2.65;1.75;;;;;;;3.16;77.58;101216.97;1912673;75;21047;-66
2022/02/06 03:47:04;;;;;;;5.12;1.85;;;;;;;3.20;77.53;101223.04;1912902;75;21101;-61
2022/02/06 03:49:39;;;;;;;3.37;1.90;;;;;;;3.21;77.47;101215.23;1913326;75;21043;-63
2022/02/06 03:51:58;;;;;;;5.50;2.58;;;;;;;3.24;77.42;101211.75;1909819;75;21584;-62
2022/02/06 03:54:27;;;;;;;8.55;3.05;;;;;;;3.25;77.36;101222.61;1913121;75;21042;-62
2022/02/06 03:56:58;;;;;;;9.28;3.52;;;;;;;3.24;77.36;101229.97;1912940;75;21022;-61
2022/02/06 03:59:26;;;;;;;6.75;2.77;;;;;;;3.22;77.31;101222.16;1912397;75;21050;-60
2022/02/06 04:01:55;;;;;;;7.87;2.55;;;;;;;3.20;77.22;101219.14;1911677;75;21035;-61
2022/02/06 04:04:24;;;;;;;6.10;2.00;;;;;;;3.17;77.28;101217.83;1912207;75;21048;-60
2022/02/06 04:06:53;;;;;;;5.92;1.87;;;;;;;3.19;77.35;101214.38;1912894;75;21512;-60
2022/02/06 04:09:32;;;;;;;6.65;2.47;;;;;;;3.22;77.31;101209.59;1912874;75;21540;-63
2022/02/06 04:11:53;;;;;;;6.47;3.52;;;;;;;3.25;77.31;101204.39;1912690;75;21039;-64
2022/02/06 04:16:55;;;;;;;8.25;3.65;;;;;;;3.32;77.17;101200.91;1867064;76;21039;-63
2022/02/06 04:19:27;;;;;;;11.15;4.47;;;;;;;3.35;77.12;101198.28;1867061;76;21151;-63
2022/02/06 04:21:57;;;;;;;6.60;2.47;;;;;;;3.35;77.06;101198.28;1867156;76;21474;-63
2022/02/06 04:24:27;;;;;;;15.32;4.55;;;;;;;3.33;77.07;101198.72;1867088;76;21059;-63
2022/02/06 04:26:56;;;;;;;7.62;3.75;;;;;;;3.35;77.00;101200.88;1867133;76;21075;-63
2022/02/06 04:29:24;;;;;;;9.10;3.52;;;;;;;3.37;76.99;101200.44;1866945;77;21530;-63
2022/02/06 04:31:53;;;;;;;6.37;2.30;;;;;;;3.35;76.95;101207.39;1883091;75;21442;-63
2022/02/06 04:34:23;;;;;;;5.60;2.90;;;;;;;3.35;77.00;101196.98;1913005;75;21470;-63
2022/02/06 04:37:05;;;;;;;7.28;2.60;;;;;;;3.38;77.18;101194.83;1912909;75;21039;-64
2022/02/06 04:56:01;;;;;;;3.55;2.17;;;;;;;3.55;77.04;101168.30;1912778;75;21604;-64
2022/02/06 05:13:16;;;;;;;2.87;1.82;;;;;;;4.01;76.35;101177.67;1867231;76;21055;-64
2022/02/06 05:25:30;;;;;;;4.40;1.90;;;;;;;3.98;76.90;101188.95;1867160;76;21114;-63
2022/02/06 05:30:26;;;;;;;2.17;1.37;;;;;;;3.95;77.25;101198.11;1867087;76;21534;-63
2022/02/06 05:33:00;;;;;;;2.65;1.60;;;;;;;3.95;77.33;101193.34;1878716;75;21121;-66
2022/02/06 05:35:21;;;;;;;1.65;1.15;;;;;;;3.95;77.24;101192.89;1883116;75;21086;-65
2022/02/06 05:37:51;;;;;;;2.55;1.50;;;;;;;3.95;77.24;101190.29;1883524;75;21569;-64
2022/02/06 05:40:19;;;;;;;3.47;1.87;;;;;;;3.94;77.34;101186.38;1883144;75;21537;-64
2022/02/06 05:42:48;;;;;;;2.42;1.55;;;;;;;3.91;77.48;101182.48;1889618;74;21082;-61
2022/02/06 05:45:22;;;;;;;4.28;1.80;;;;;;;3.89;77.55;101185.53;1885523;76;21075;-62
2022/02/06 05:47:48;;;;;;;2.95;2.08;;;;;;;3.90;77.53;101179.46;1885169;75;21074;-62
2022/02/06 05:50:18;;;;;;;3.37;1.45;;;;;;;3.92;77.51;101184.22;1896346;74;21454;-67
2022/02/06 05:52:47;;;;;;;1.92;1.27;;;;;;;3.92;77.49;101173.80;1925967;74;21038;-62
2022/02/06 05:55:15;;;;;;;2.52;1.10;;;;;;;3.91;77.53;101170.75;1925903;74;21125;-64
2022/02/06 05:57:44;;;;;;;1.60;1.35;;;;;;;3.90;77.58;101174.25;1911101;74;21486;-64
2022/02/06 06:00:14;;;;;;;1.92;1.10;;;;;;;3.92;77.62;101167.29;1889338;75;21848;-64
2022/02/06 06:02:42;;;;;;;2.15;0.93;;;;;;;3.91;77.60;101162.94;1889335;76;21065;-62
2022/02/06 06:05:11;;;;;;;6.00;3.05;;;;;;;3.92;77.76;101169.89;1889445;75;21086;-63
2022/02/06 06:07:44;;;;;;;2.25;1.72;;;;;;;3.93;77.79;101160.77;1891043;74;21026;-63
2022/02/06 06:10:13;;;;;;;4.60;1.40;;;;;;;3.93;77.81;101158.17;1857881;77;21021;-64
2022/02/06 06:12:42;;;;;;;2.10;1.70;;;;;;;3.97;77.93;101151.20;1857698;77;21039;-61
2022/02/06 06:15:11;;;;;;;4.12;2.17;;;;;;;4.00;77.92;101144.23;1857701;77;21571;-62
2022/02/06 06:17:40;;;;;;;3.37;1.75;;;;;;;4.03;78.05;101139.44;1861952;74;21118;-63
2022/02/06 06:20:14;;;;;;;4.25;2.37;;;;;;;4.08;78.14;101140.28;1857699;77;21476;-61
2022/02/06 06:22:41;;;;;;;2.47;1.80;;;;;;;4.10;78.25;101146.80;1857780;76;21637;-63
2022/02/06 06:25:11;;;;;;;6.22;2.52;;;;;;;4.09;78.40;101128.96;1857680;76;21647;-61
2022/02/06 06:27:40;;;;;;;6.75;2.52;;;;;;;4.09;78.61;101141.14;1857800;76;21108;-62
2022/02/06 06:30:09;;;;;;;5.92;2.95;;;;;;;4.06;78.85;101131.61;1857803;77;21033;-62
2022/02/06 06:32:39;;;;;;;5.60;3.12;;;;;;;4.03;79.00;101126.41;1874811;74;21030;-62
2022/02/06 06:35:09;;;;;;;3.87;2.15;;;;;;;4.02;79.03;101129.45;1889400;76;21129;-61
2022/02/06 06:37:41;;;;;;;3.58;2.15;;;;;;;4.03;79.01;101127.70;1904425;74;21010;-62
2022/02/06 06:40:10;;;;;;;7.60;3.25;;;;;;;4.03;78.89;101128.56;1923035;74;21473;-61
2022/02/06 06:42:39;;;;;;;3.30;2.42;;;;;;;4.05;79.00;101127.26;1902096;74;21063;-61
2022/02/06 06:45:09;;;;;;;5.95;2.95;;;;;;;4.04;79.03;101120.33;1882983;75;21043;-61
2022/02/06 06:47:38;;;;;;;6.83;3.08;;;;;;;4.05;78.94;101116.84;1882851;75;21113;-62
2022/02/06 06:50:07;;;;;;;5.60;3.70;;;;;;;4.07;78.84;101116.38;1882923;75;21067;-62
2022/02/06 06:52:36;;;;;;;5.47;3.25;;;;;;;4.09;78.79;101115.94;1882900;75;21137;-61
2022/02/06 06:55:05;;;;;;;8.78;3.95;;;;;;;4.09;78.84;101118.54;1895745;75;21036;-60
2022/02/06 06:57:41;;;;;;;8.58;3.95;;;;;;;4.09;78.91;101114.63;1903912;75;21097;-59
2022/02/06 07:00:20;;;;;;;6.53;4.40;;;;;;;4.10;78.92;101120.28;1904220;75;21508;-59
2022/02/06 07:02:38;;;;;;;8.63;4.60;;;;;;;4.11;78.92;101122.00;1904390;75;21478;-62
2022/02/06 07:05:07;;;;;;;10.70;5.00;;;;;;;4.11;78.92;101124.61;1903883;75;21635;-64
2022/02/06 07:07:36;;;;;;;13.30;5.72;;;;;;;4.13;78.96;101122.88;1904098;75;21093;-62
2022/02/06 07:10:06;;;;;;;12.63;4.87;;;;;;;4.15;78.95;101123.73;1904089;75;21035;-62
2022/02/06 07:12:35;;;;;;;11.78;4.62;;;;;;;4.16;79.02;101125.45;1900126;75;21023;-61
2022/02/06 07:15:04;;;;;;;9.15;3.87;;;;;;;4.19;79.03;101124.58;1900682;75;21129;-62
2022/02/06 07:17:33;;;;;;;10.38;4.20;;;;;;;4.20;78.97;101134.97;1900868;75;21027;-60
2022/02/06 07:20:02;;;;;;;5.50;3.00;;;;;;;4.20;78.96;101134.97;1900815;75;21090;-61
2022/02/06 07:22:35;;;;;;;6.17;2.17;;;;;;;4.16;79.02;101135.88;1899268;75;21488;-61
2022/02/06 07:25:02;;;;;;;7.87;2.35;;;;;;;4.10;79.12;101135.92;1900855;75;21047;-61
2022/02/06 07:27:38;;;;;;;2.87;1.70;;;;;;;4.01;79.12;101135.53;1900669;75;21462;-62
2022/02/06 07:30:06;;;;;;;4.22;1.80;;;;;;;3.95;79.10;101138.63;1900737;75;21043;-62
2022/02/06 07:32:36;;;;;;;;;;;;;;;3.88;79.04;101143.44;1854149;77;21005;-62
2022/02/06 07:35:07;;;;;;;3.30;2.10;;;;;;;3.82;78.93;101137.38;1851502;77;20117;-62
2022/02/06 07:37:37;;;;;;;6.10;2.10;;;;;;;3.70;79.09;101129.61;1851396;77;21088;-59
2022/02/06 07:40:07;;;;;;;4.70;1.75;;;;;;;3.68;79.10;101139.17;1851505;77;21101;-61
2022/02/06 07:42:36;;;;;;;2.98;1.80;;;;;;;3.61;79.11;101144.83;1856701;76;21055;-61
2022/02/06 07:45:07;;;;;;;3.12;1.65;;;;;;;3.54;79.06;101144.86;1878304;76;21111;-61
2022/02/06 07:47:38;;;;;;;4.95;1.92;;;;;;;3.54;79.02;101141.84;1879288;76;21042;-61
2022/02/06 07:50:07;;;;;;;4.33;1.60;;;;;;;3.55;78.95;101140.09;1889812;75;21063;-63
2022/02/06 07:52:36;;;;;;;4.55;1.85;;;;;;;3.55;78.89;101138.80;1914539;74;21089;-63
2022/02/06 07:55:07;;;;;;;4.53;2.40;;;;;;;3.58;78.85;101146.57;1914613;74;21019;-61
2022/02/06 07:57:38;;;;;;;8.68;4.00;;;;;;;3.58;78.82;101151.78;1914475;74;21092;-63
2022/02/06 08:00:09;;;;;;;6.08;3.50;;;;;;;3.56;78.91;101150.52;1902993;74;21069;-63
2022/02/06 08:02:41;;;;;;;6.87;3.55;;;;;;;3.50;79.01;101149.66;1907897;75;21145;-64
2022/02/06 08:05:10;;;;;;;5.12;3.33;;;;;;;3.47;79.09;101150.09;1907982;75;21079;-61
2022/02/06 08:07:40;;;;;;;4.67;3.00;;;;;;;3.45;79.18;101150.55;1896758;76;21470;-61
2022/02/06 08:10:09;;;;;;;1.67;1.52;;;;;;;3.45;79.29;101154.89;1896562;76;21510;-62
2022/02/06 08:12:50;;;;;;;5.90;3.10;;;;;;;3.47;79.32;101158.35;1896830;75;21059;-62
2022/02/06 08:15:09;;;;;;;6.45;3.47;;;;;;;3.43;79.40;101150.98;1894979;75;21027;-62
2022/02/06 08:17:39;;;;;;;11.00;2.90;;;;;;;3.40;79.44;101144.92;1892844;76;21113;-63
2022/02/06 08:20:12;;;;;;;5.83;2.70;;;;;;;3.40;79.46;101148.38;1874373;76;21105;-61
2022/02/06 08:22:44;;;;;;;5.33;2.50;;;;;;;3.41;79.48;101144.03;1890146;75;21026;-64
2022/02/06 08:25:15;;;;;;;4.90;2.17;;;;;;;3.40;79.44;101153.59;1881423;76;21110;-62
2022/02/06 08:27:49;;;;;;;4.12;2.10;;;;;;;3.39;79.41;101160.95;1884306;75;21055;-62
2022/02/06 08:30:23;;;;;;;3.47;2.30;;;;;;;3.37;79.48;101153.59;1829053;77;21148;-62
2022/02/06 08:32:56;;;;;;;5.47;2.40;;;;;;;3.38;79.53;101164.44;1686954;83;21207;-68
2022/02/06 08:35:25;;;;;;;3.40;1.42;;;;;;;3.42;79.61;101164.86;1807742;77;21054;-67
2022/02/06 08:37:57;;;;;;;3.02;1.50;;;;;;;3.36;79.57;101166.63;1850200;77;21485;-71
2022/02/06 08:40:31;;;;;;;3.58;1.82;;;;;;;3.32;79.48;101170.98;1832902;77;21098;-68
2022/02/06 08:43:04;;;;;;;3.37;1.82;;;;;;;3.25;79.46;101180.52;1858952;76;21138;-62
2022/02/06 08:45:41;;;;;;;3.50;1.90;;;;;;;3.22;79.53;101181.81;1879834;76;21513;-61
2022/02/06 08:48:10;;;;;;;5.05;2.25;;;;;;;3.20;79.62;101198.31;1879707;76;21058;-64
2022/02/06 08:50:41;;;;;;;4.72;2.60;;;;;;;3.21;79.69;101189.20;1879767;76;21019;-66
2022/02/06 08:53:13;;;;;;;3.65;1.82;;;;;;;3.26;79.68;101190.48;1874622;76;21125;-64
2022/02/06 08:55:48;;;;;;;4.58;2.15;;;;;;;3.29;79.74;101194.40;1877691;76;21612;-61
2022/02/06 08:58:32;;;;;;;2.90;1.65;;;;;;;3.26;79.72;101190.48;1877253;76;21102;-64
2022/02/06 09:01:04;;;;;;;6.05;2.45;;;;;;;3.23;79.70;101197.02;1844606;76;21102;-64
2022/02/06 09:03:33;;;;;;;2.75;1.65;;;;;;;3.23;79.75;101204.83;1877106;76;21620;-61
2022/02/06 09:06:03;;;;;;;3.45;1.60;;;;;;;3.20;79.67;101204.82;1877334;76;21066;-64
2022/02/06 09:08:32;;;;;;;2.55;1.40;;;;;;;3.14;79.58;101195.29;1877371;76;21043;-68
2022/02/06 09:11:01;;;;;;;1.42;0.80;;;;;;;3.12;79.51;101188.33;1877391;76;21015;-71
2022/02/06 09:13:30;;;;;;;3.90;2.30;;;;;;;3.06;79.39;101190.09;1877333;76;21526;-63
2022/02/06 09:15:59;;;;;;;4.97;3.10;;;;;;;3.04;79.32;101189.64;1877273;76;21220;-61
2022/02/06 09:18:32;;;;;;;6.17;3.50;;;;;;;3.02;79.23;101192.69;1879310;76;21067;-62
2022/02/06 09:20:58;;;;;;;7.17;4.03;;;;;;;3.04;79.30;101186.63;1879845;76;21079;-61
2022/02/06 09:23:27;;;;;;;6.47;3.87;;;;;;;3.06;79.41;101191.40;1879878;76;21059;-61
2022/02/06 09:25:56;;;;;;;6.90;4.97;;;;;;;3.14;79.37;101197.03;1879853;76;21486;-62
2022/02/06 09:28:25;;;;;;;5.75;2.58;;;;;;;3.19;79.30;101187.46;1879674;76;21509;-62
2022/02/06 09:30:53;;;;;;;3.70;2.67;;;;;;;3.18;79.13;101190.95;1879977;76;21078;-62
2022/02/06 09:35:52;;;;;;;7.62;4.05;;;;;;;3.15;79.13;101184.44;1880031;76;21544;-62
2022/02/06 09:38:39;;;;;;;7.20;3.98;;;;;;;3.15;79.20;101173.58;1901793;75;21127;-60
2022/02/06 09:41:08;;;;;;;7.85;4.20;;;;;;;3.18;79.21;101176.19;1901987;75;21082;-62
2022/02/06 09:43:39;;;;;;;8.68;5.08;;;;;;;3.21;79.19;101181.41;1888723;74;20983;-62
2022/02/06 09:46:09;;;;;;;7.67;5.55;;;;;;;3.23;79.14;101186.61;1923110;74;21109;-63
2022/02/06 09:48:39;;;;;;;8.38;4.50;;;;;;;3.25;79.09;101185.73;1873963;74;21474;-63
2022/02/06 09:51:10;;;;;;;11.60;4.78;;;;;;;3.33;79.11;101188.31;1885035;75;21109;-63
2022/02/06 09:53:40;;;;;;;10.10;5.08;;;;;;;3.40;79.05;101187.42;1885513;75;21066;-64
2022/02/06 09:56:12;;;;;;;9.05;5.47;;;;;;;3.51;79.06;101181.34;1910001;74;21158;-63
2022/02/06 10:01:34;;;;;;;13.13;6.42;;;;;;;3.88;79.02;101178.61;1872737;76;21068;-63
2022/02/06 10:04:06;;;;;;;12.90;6.95;;;;;;;4.13;78.96;101186.73;1872718;76;21043;-66
2022/02/06 10:06:38;;;;;;;9.80;4.62;;;;;;;4.19;78.82;101184.53;1870044;77;21466;-65
2022/02/06 10:09:09;;;;;;;10.28;5.37;;;;;;;4.14;78.55;101179.77;1871461;76;21102;-64
2022/02/06 10:11:40;;;;;;;9.95;5.60;;;;;;;4.00;78.21;101178.53;1872514;76;21133;-64
2022/02/06 10:14:09;;;;;;;6.42;3.72;;;;;;;3.93;78.19;101184.22;1871908;76;21130;-63
2022/02/06 10:16:39;;;;;;;13.55;6.53;;;;;;;3.90;78.30;101178.16;1872549;77;21092;-62
2022/02/06 10:19:08;;;;;;;9.15;5.00;;;;;;;3.84;78.31;101185.13;1871424;76;21541;-64
2022/02/06 10:21:37;;;;;;;16.60;8.10;;;;;;;3.81;78.47;101187.73;1859033;76;21113;-64
2022/02/06 10:24:12;;;;;;;16.55;8.33;;;;;;;3.81;78.60;101189.48;1862732;77;21467;-62
2022/02/06 10:26:52;;;;;;;19.32;9.43;;;;;;;3.88;78.71;101191.63;1870446;76;21110;-63
2022/02/06 10:31:55;;;;;;;16.93;8.33;;;;;;;3.86;78.70;101210.73;1861162;77;21098;-64
2022/02/06 10:34:30;;;;;;;19.15;8.35;;;;;;;3.82;78.67;101212.92;1872731;76;21080;-67
2022/02/06 10:40:09;;;;;;;20.88;9.95;;;;;;;3.77;78.63;101218.58;1830514;77;21599;-64
2022/02/06 10:42:42;;;;;;;15.78;7.67;;;;;;;3.72;78.57;101220.77;1818366;78;21062;-59
2022/02/06 10:45:25;;;;;;;14.93;8.08;;;;;;;3.67;78.60;101228.58;1808345;78;21154;-60
2022/02/06 10:47:55;;;;;;;17.98;9.30;;;;;;;3.64;78.59;101234.67;1822862;78;21197;-62
2022/02/06 10:50:28;;;;;;;15.38;7.67;;;;;;;3.59;78.66;101237.71;1818724;78;21062;-60
2022/02/06 10:53:07;;;;;;;;;;;;;;;3.55;78.72;101248.16;1820061;78;21066;-63
2022/02/06 10:55:36;;;;;;;11.10;5.92;;;;;;;3.52;78.56;101252.05;1828791;78;20152;-60
2022/02/06 10:58:05;;;;;;;9.08;4.50;;;;;;;3.45;78.66;101255.98;1835038;78;21592;-59
2022/02/06 11:00:36;;;;;;;8.93;5.17;;;;;;;3.43;78.52;101262.93;1826120;78;21152;-58
2022/02/06 11:03:28;;;;;;;5.25;3.15;;;;;;;3.46;78.58;101267.25;1818259;78;21022;-60
2022/02/06 11:05:55;;;;;;;4.67;3.27;;;;;;;3.51;78.44;101274.63;1819592;78;21010;-60
2022/02/06 11:08:30;;;;;;;7.67;3.72;;;;;;;3.57;78.39;101284.17;1819532;78;21039;-64
2022/02/06 11:11:02;;;;;;;4.55;2.42;;;;;;;3.65;78.31;101288.92;1816863;78;21137;-66
2022/02/06 11:13:32;;;;;;;5.78;3.77;;;;;;;3.84;78.31;101293.23;1835773;78;21986;-59
2022/02/06 11:16:09;;;;;;;2.70;2.17;;;;;;;4.06;78.12;101294.48;1828989;78;21015;-59
2022/02/06 11:18:43;;;;;;;4.12;2.37;;;;;;;4.23;77.76;101297.02;1821045;78;21165;-58
2022/02/06 11:21:10;;;;;;;2.83;1.72;;;;;;;4.42;77.41;101307.78;1815074;78;21031;-58
2022/02/06 11:23:42;;;;;;;2.85;2.40;;;;;;;4.65;77.10;101313.35;1841301;77;21473;-59
2022/02/06 11:26:13;;;;;;;2.20;1.22;;;;;;;4.83;76.39;101309.74;1846161;78;21035;-58
2022/02/06 11:28:42;;;;;;;4.33;2.20;;;;;;;5.14;75.68;101306.48;1846062;77;21125;-58
2022/02/06 11:31:10;;;;;;;3.47;2.05;;;;;;;5.25;74.86;101309.02;1846110;77;21054;-60
2022/02/06 11:33:39;;;;;;;2.20;1.25;;;;;;;5.41;74.66;101310.63;1846064;77;21058;-60
2022/02/06 11:36:22;;;;;;;2.62;1.70;;;;;;;5.55;74.43;101313.55;1846069;77;21066;-61
2022/02/06 11:44:50;;;;;;;4.50;2.67;;;;;;;4.90;74.78;101339.29;1846078;77;21132;-62
2022/02/06 11:47:25;;;;;;;6.15;3.75;;;;;;;4.66;75.30;101341.59;1843217;78;21701;-61
2022/02/06 11:49:57;;;;;;;6.30;3.50;;;;;;;4.44;75.73;101358.22;1818952;77;21169;-62
2022/02/06 11:52:47;;;;;;;14.98;8.95;;;;;;;4.34;76.02;101366.08;1828563;78;21018;-64
2022/02/06 11:55:45;;;;;;;8.18;4.35;;;;;;;4.25;75.92;101370.43;1800844;79;21047;-62
2022/02/06 11:58:28;;;;;;;8.73;4.35;;;;;;;4.37;75.89;101372.56;1805716;79;21067;-60
2022/02/06 12:01:09;;;;;;;7.45;4.75;;;;;;;4.53;75.73;101380.77;1806035;79;21145;-60
2022/02/06 12:03:50;;;;;;;6.72;3.52;;;;;;;4.57;75.27;101382.92;1805843;79;21062;-66
2022/02/06 12:06:24;;;;;;;3.00;2.12;;;;;;;4.48;75.17;101386.42;1805905;79;21058;-65
2022/02/06 12:09:05;;;;;;;7.83;3.90;;;;;;;4.32;75.39;101388.68;1809075;78;21168;-66
2022/02/06 12:11:35;;;;;;;3.72;2.08;;;;;;;4.20;75.80;101402.59;1837542;77;21025;-66
2022/02/06 12:14:23;;;;;;;7.53;3.75;;;;;;;4.17;76.01;101419.13;1837223;78;21025;-66
2022/02/06 12:17:21;;;;;;;5.47;3.30;;;;;;;4.25;76.13;101427.78;1837567;78;21033;-66
2022/02/06 12:20:09;;;;;;;8.55;4.05;;;;;;;4.39;76.19;101425.57;1837735;77;21029;-66
2022/02/06 12:22:40;;;;;;;6.45;3.95;;;;;;;4.52;75.48;101442.95;1835918;78;21042;-66
2022/02/06 12:25:37;;;;;;;7.10;4.42;;;;;;;4.67;75.45;101434.20;1837349;78;21033;-66
2022/02/06 12:28:21;;;;;;;9.68;4.85;;;;;;;4.86;75.25;101438.91;1837121;78;21097;-67
2022/02/06 12:33:52;;;;;;;10.25;6.05;;;;;;;4.97;74.36;101451.46;1826259;78;21051;-65
2022/02/06 12:39:26;;;;;;;7.72;4.30;;;;;;;4.51;74.54;101455.54;1826149;78;21165;-66
2022/02/06 12:41:57;;;;;;;9.05;5.37;;;;;;;4.45;74.82;101464.25;1826121;78;21046;-66
2022/02/06 12:44:28;;;;;;;12.53;6.33;;;;;;;4.37;74.98;101474.25;1825941;78;21060;-65
2022/02/06 12:47:05;;;;;;;13.25;6.00;;;;;;;4.37;75.24;101479.47;1824771;78;21050;-66
2022/02/06 12:49:35;;;;;;;11.73;5.80;;;;;;;4.40;75.14;101487.30;1824277;78;21454;-66
2022/02/06 12:52:05;;;;;;;12.33;6.03;;;;;;;4.32;75.11;101488.61;1824401;79;21054;-65
2022/02/06 12:54:35;;;;;;;11.78;6.10;;;;;;;4.24;74.91;101500.77;1824158;79;21054;-66
2022/02/06 12:57:04;;;;;;;11.90;5.65;;;;;;;4.17;75.25;101507.75;1824368;79;21152;-66
2022/02/06 12:59:34;;;;;;;13.85;6.03;;;;;;;4.13;75.28;101502.52;1824317;78;21100;-66
2022/02/06 13:02:04;;;;;;;13.58;6.78;;;;;;;4.06;75.27;101508.19;1824361;79;21062;-65
2022/02/06 13:04:40;;;;;;;18.20;5.05;;;;;;;4.07;75.37;101506.00;1824208;79;21081;-65
2022/02/06 13:07:05;;;;;;;13.80;6.03;;;;;;;4.06;75.02;101509.48;1824487;78;21070;-66
2022/02/06 13:09:40;;;;;;;11.43;5.25;;;;;;;4.12;75.18;101514.69;1824262;79;21038;-64
2022/02/06 13:12:26;;;;;;;13.45;6.72;;;;;;;4.20;75.10;101514.24;1824452;78;21136;-64
2022/02/06 13:23:05;;;;;;;17.73;7.67;;;;;;;4.18;74.68;101532.06;1824295;79;21030;-64
2022/02/06 13:28:32;;;;;;;13.28;5.17;;;;;;;4.06;74.85;101536.86;1824382;79;21050;-65
2022/02/06 13:38:52;;;;;;;11.90;4.17;;;;;;;4.29;74.26;101543.80;1842715;76;21132;-66
2022/02/06 13:41:21;;;;;;;17.50;7.28;;;;;;;4.30;74.32;101551.63;1850205;77;21564;-64
2022/02/06 13:43:51;;;;;;;14.83;7.33;;;;;;;4.25;74.34;101550.75;1836829;76;21094;-64
2022/02/06 13:46:23;;;;;;;15.50;6.67;;;;;;;4.14;74.14;101554.66;1835415;78;21120;-66
2022/02/06 13:48:52;;;;;;;16.53;7.20;;;;;;;3.95;74.07;101563.34;1846597;77;21027;-64
2022/02/06 13:51:30;;;;;;;14.45;6.10;;;;;;;3.87;74.32;101569.81;1828074;77;21594;-63
2022/02/06 13:54:03;;;;;;;13.90;6.17;;;;;;;3.75;74.60;101578.92;1835182;77;21115;-63
2022/02/06 13:56:37;;;;;;;16.57;6.05;;;;;;;3.72;74.95;101585.42;1847285;77;22009;-63
2022/02/06 13:59:11;;;;;;;16.37;6.58;;;;;;;3.70;75.02;101590.62;1858752;76;21137;-64
2022/02/06 14:01:47;;;;;;;12.80;6.45;;;;;;;3.68;75.09;101589.75;1857706;77;21099;-62
2022/02/06 14:04:26;;;;;;;12.73;6.67;;;;;;;3.68;75.21;101598.86;1858547;77;21134;-63
2022/02/06 14:07:11;;;;;;;17.17;7.17;;;;;;;3.69;75.33;101609.73;1858876;77;21032;-63
2022/02/06 14:12:25;;;;;;;15.48;7.30;;;;;;;3.72;75.28;101621.89;1858986;77;21126;-61
2022/02/06 14:14:54;;;;;;;17.07;6.83;;;;;;;3.70;75.16;101622.31;1858196;77;21031;-61
2022/02/06 14:17:33;;;;;;;21.33;7.70;;;;;;;3.66;75.09;101635.76;1859008;77;21118;-60
2022/02/06 14:20:14;;;;;;;17.12;7.47;;;;;;;3.63;75.03;101633.13;1858752;77;21043;-64
2022/02/06 14:22:48;;;;;;;16.52;7.03;;;;;;;3.57;74.94;101643.09;1858874;76;21052;-62